createdAt,value
2023-05-22T00:00:22.125Z,16.78
2023-05-22T00:01:22.109Z,16.75
2023-05-22T00:02:22.135Z,16.75
2023-05-22T00:03:22.208Z,16.74
2023-05-22T00:04:22.137Z,16.73
2023-05-22T00:05:22.145Z,16.71
2023-05-22T00:06:22.083Z,16.70
2023-05-22T00:07:22.041Z,16.68
2023-05-22T00:08:22.049Z,16.65
2023-05-22T00:09:22.043Z,16.63
2023-05-22T00:10:22.042Z,16.60
2023-05-22T00:11:21.996Z,16.59
2023-05-22T00:12:21.982Z,16.58
2023-05-22T00:13:21.974Z,16.56
2023-05-22T00:14:22.023Z,16.52
2023-05-22T00:15:21.964Z,16.52
2023-05-22T00:16:21.997Z,16.48
2023-05-22T00:17:22.110Z,16.44
2023-05-22T00:18:21.954Z,16.40
2023-05-22T00:19:21.955Z,16.37
2023-05-22T00:20:21.900Z,16.34
2023-05-22T00:21:21.926Z,16.27
2023-05-22T00:22:21.936Z,16.23
2023-05-22T00:23:21.892Z,16.22
2023-05-22T00:24:21.900Z,16.18
2023-05-22T00:25:21.840Z,16.15
2023-05-22T00:26:21.876Z,16.12
2023-05-22T00:27:21.842Z,16.12
2023-05-22T00:28:21.830Z,16.12
2023-05-22T00:29:21.843Z,16.15
2023-05-22T00:30:21.848Z,16.16
2023-05-22T00:31:21.821Z,16.15
2023-05-22T00:32:21.833Z,16.12
2023-05-22T00:33:21.796Z,16.09
2023-05-22T00:34:21.797Z,16.09
2023-05-22T00:35:21.774Z,16.04
2023-05-22T00:36:21.757Z,16.01
2023-05-22T00:37:21.761Z,15.99
2023-05-22T00:38:21.746Z,15.97
2023-05-22T00:39:21.729Z,15.93
2023-05-22T00:40:21.698Z,15.92
2023-05-22T00:41:21.693Z,15.88
2023-05-22T00:42:21.684Z,15.85
2023-05-22T00:43:21.723Z,15.84
2023-05-22T00:44:21.688Z,15.81
2023-05-22T00:45:21.668Z,15.76
2023-05-22T00:46:21.865Z,15.74
2023-05-22T00:47:21.635Z,15.72
2023-05-22T00:48:21.617Z,15.70
2023-05-22T00:49:21.631Z,15.68
2023-05-22T00:50:21.626Z,15.67
2023-05-22T00:51:21.585Z,15.64
2023-05-22T00:52:21.574Z,15.63
2023-05-22T00:53:21.565Z,15.61
2023-05-22T00:54:21.584Z,15.61
2023-05-22T00:55:21.550Z,15.59
2023-05-22T00:56:21.543Z,15.59
2023-05-22T00:57:21.537Z,15.59
2023-05-22T00:58:21.525Z,15.57
2023-05-22T00:59:21.532Z,15.57
2023-05-22T01:00:21.491Z,15.54
2023-05-22T01:01:21.516Z,15.56
2023-05-22T01:02:21.480Z,15.56
2023-05-22T01:03:21.612Z,15.54
2023-05-22T01:04:21.467Z,15.49
2023-05-22T01:05:21.456Z,15.51
2023-05-22T01:06:21.442Z,15.48
2023-05-22T01:07:21.449Z,15.46
2023-05-22T01:08:21.461Z,15.46
2023-05-22T01:09:21.433Z,15.48
2023-05-22T01:10:21.403Z,15.45
2023-05-22T01:11:21.374Z,15.43
2023-05-22T01:12:21.400Z,15.42
2023-05-22T01:13:21.411Z,15.41
2023-05-22T01:14:21.368Z,15.39
2023-05-22T01:15:21.342Z,15.38
2023-05-22T01:16:21.386Z,15.36
2023-05-22T01:17:21.343Z,15.35
2023-05-22T01:18:21.343Z,15.35
2023-05-22T01:19:21.344Z,15.33
2023-05-22T01:20:21.302Z,15.33
2023-05-22T01:21:21.348Z,15.33
2023-05-22T01:22:21.298Z,15.31
2023-05-22T01:23:21.270Z,15.30
2023-05-22T01:24:21.256Z,15.31
2023-05-22T01:25:21.234Z,15.30
2023-05-22T01:26:21.226Z,15.31
2023-05-22T01:27:21.240Z,15.33
2023-05-22T01:28:21.204Z,15.31
2023-05-22T01:29:21.210Z,15.33
2023-05-22T01:30:21.249Z,15.35
2023-05-22T01:31:21.234Z,15.35
2023-05-22T01:32:21.233Z,15.35
2023-05-22T01:33:21.270Z,15.36
2023-05-22T01:34:21.185Z,15.36
2023-05-22T01:35:21.160Z,15.36
2023-05-22T01:36:21.154Z,15.36
2023-05-22T01:37:21.111Z,15.35
2023-05-22T01:38:21.121Z,15.35
2023-05-22T01:39:21.156Z,15.33
2023-05-22T01:40:21.152Z,15.33
2023-05-22T01:41:21.073Z,15.33
2023-05-22T01:42:21.081Z,15.33
2023-05-22T01:43:21.060Z,15.30
2023-05-22T01:44:21.064Z,15.30
2023-05-22T01:45:21.078Z,15.30
2023-05-22T01:46:21.201Z,15.30
2023-05-22T01:47:21.035Z,15.28
2023-05-22T01:48:21.073Z,15.27
2023-05-22T01:49:21.063Z,15.26
2023-05-22T01:50:21.085Z,15.24
2023-05-22T01:51:20.969Z,15.24
2023-05-22T01:52:20.978Z,15.23
2023-05-22T01:53:20.948Z,15.21
2023-05-22T01:54:20.959Z,15.21
2023-05-22T01:55:20.967Z,15.21
2023-05-22T01:56:20.918Z,15.21
2023-05-22T01:57:20.945Z,15.19
2023-05-22T01:58:20.899Z,15.15
2023-05-22T01:59:20.921Z,15.12
2023-05-22T02:00:20.917Z,15.12
2023-05-22T02:01:20.969Z,15.11
2023-05-22T02:02:20.877Z,15.09
2023-05-22T02:03:21.017Z,15.06
2023-05-22T02:04:20.887Z,15.08
2023-05-22T02:05:20.891Z,15.08
2023-05-22T02:06:20.852Z,15.06
2023-05-22T02:07:20.811Z,15.05
2023-05-22T02:08:20.823Z,15.05
2023-05-22T02:09:20.878Z,15.05
2023-05-22T02:10:20.796Z,15.03
2023-05-22T02:11:20.785Z,15.02
2023-05-22T02:12:20.764Z,15.01
2023-05-22T02:13:20.775Z,14.95
2023-05-22T02:14:20.780Z,14.94
2023-05-22T02:15:20.764Z,14.91
2023-05-22T02:16:20.862Z,14.88
2023-05-22T02:17:20.698Z,14.87
2023-05-22T02:18:20.734Z,14.87
2023-05-22T02:19:20.743Z,14.87
2023-05-22T02:20:20.688Z,14.83
2023-05-22T02:21:20.659Z,14.80
2023-05-22T02:22:20.658Z,14.81
2023-05-22T02:23:20.680Z,14.78
2023-05-22T02:24:20.680Z,14.75
2023-05-22T02:25:20.637Z,14.75
2023-05-22T02:26:20.614Z,14.72
2023-05-22T02:27:20.630Z,14.71
2023-05-22T02:28:20.636Z,14.69
2023-05-22T02:29:20.617Z,14.69
2023-05-22T02:30:20.578Z,14.68
2023-05-22T02:31:20.605Z,14.69
2023-05-22T02:32:20.643Z,14.68
2023-05-22T02:33:20.584Z,14.67
2023-05-22T02:34:20.542Z,14.67
2023-05-22T02:35:20.546Z,14.65
2023-05-22T02:36:20.513Z,14.62
2023-05-22T02:37:20.513Z,14.61
2023-05-22T02:38:20.494Z,14.61
2023-05-22T02:39:20.493Z,14.60
2023-05-22T02:40:20.462Z,14.60
2023-05-22T02:41:20.533Z,14.56
2023-05-22T02:42:20.501Z,14.56
2023-05-22T02:43:20.380Z,14.54
2023-05-22T02:44:20.391Z,14.53
2023-05-22T02:45:20.367Z,14.54
2023-05-22T02:46:20.492Z,14.53
2023-05-22T02:47:20.336Z,14.54
2023-05-22T02:48:20.326Z,14.52
2023-05-22T02:49:20.344Z,14.50
2023-05-22T02:50:20.309Z,14.52
2023-05-22T02:51:20.403Z,14.50
2023-05-22T02:52:20.285Z,14.50
2023-05-22T02:53:20.273Z,14.52
2023-05-22T02:54:20.270Z,14.52
2023-05-22T02:55:20.285Z,14.52
2023-05-22T02:56:20.259Z,14.52
2023-05-22T02:57:20.235Z,14.49
2023-05-22T02:58:20.226Z,14.47
2023-05-22T02:59:20.248Z,14.47
2023-05-22T03:00:20.258Z,14.46
2023-05-22T03:01:20.228Z,14.46
2023-05-22T03:02:20.184Z,14.43
2023-05-22T03:03:20.270Z,14.43
2023-05-22T03:04:20.176Z,14.39
2023-05-22T03:05:20.177Z,14.37
2023-05-22T03:06:20.180Z,14.34
2023-05-22T03:07:20.128Z,14.34
2023-05-22T03:08:20.112Z,14.35
2023-05-22T03:09:20.189Z,14.32
2023-05-22T03:10:20.125Z,14.32
2023-05-22T03:11:20.125Z,14.29
2023-05-22T03:12:20.072Z,14.28
2023-05-22T03:13:20.080Z,14.25
2023-05-22T03:14:20.068Z,14.24
2023-05-22T03:15:20.082Z,14.21
2023-05-22T03:16:20.061Z,14.16
2023-05-22T03:17:20.027Z,14.14
2023-05-22T03:18:20.027Z,14.09
2023-05-22T03:19:20.079Z,14.07
2023-05-22T03:20:20.025Z,14.04
2023-05-22T03:21:20.010Z,14.01
2023-05-22T03:22:19.962Z,13.98
2023-05-22T03:23:19.967Z,13.96
2023-05-22T03:24:19.983Z,13.95
2023-05-22T03:25:19.995Z,13.92
2023-05-22T03:26:19.929Z,13.89
2023-05-22T03:27:19.925Z,13.89
2023-05-22T03:28:19.915Z,13.89
2023-05-22T03:29:20.060Z,13.88
2023-05-22T03:30:19.916Z,13.87
2023-05-22T03:31:19.885Z,13.83
2023-05-22T03:32:19.876Z,13.81
2023-05-22T03:33:19.891Z,13.81
2023-05-22T03:34:19.860Z,13.81
2023-05-22T03:35:19.835Z,13.79
2023-05-22T03:36:19.818Z,13.77
2023-05-22T03:37:19.847Z,13.80
2023-05-22T03:38:19.830Z,13.81
2023-05-22T03:39:19.830Z,13.81
2023-05-22T03:40:19.788Z,13.84
2023-05-22T03:41:19.792Z,13.81
2023-05-22T03:42:19.789Z,13.81
2023-05-22T03:43:19.762Z,13.83
2023-05-22T03:44:19.772Z,13.81
2023-05-22T03:45:19.822Z,13.83
2023-05-22T03:46:19.798Z,13.83
2023-05-22T03:47:19.710Z,13.83
2023-05-22T03:48:19.696Z,13.84
2023-05-22T03:49:19.737Z,13.88
2023-05-22T03:50:19.666Z,13.92
2023-05-22T03:51:20.502Z,13.92
2023-05-22T03:52:19.727Z,13.92
2023-05-22T03:53:19.658Z,13.95
2023-05-22T03:54:19.720Z,13.98
2023-05-22T03:55:19.628Z,13.98
2023-05-22T03:56:19.627Z,14.01
2023-05-22T03:57:19.606Z,14.01
2023-05-22T03:58:19.665Z,14.01
2023-05-22T03:59:19.609Z,14.02
2023-05-22T04:00:19.634Z,14.06
2023-05-22T04:01:19.590Z,14.06
2023-05-22T04:02:19.579Z,14.06
2023-05-22T04:03:19.953Z,14.06
2023-05-22T04:04:19.534Z,14.07
2023-05-22T04:05:19.574Z,14.06
2023-05-22T04:06:19.509Z,14.06
2023-05-22T04:07:19.508Z,14.07
2023-05-22T04:08:19.521Z,14.07
2023-05-22T04:09:19.509Z,14.07
2023-05-22T04:10:19.521Z,14.07
2023-05-22T04:11:19.450Z,14.09
2023-05-22T04:12:19.465Z,14.12
2023-05-22T04:13:19.455Z,14.12
2023-05-22T04:14:19.430Z,14.13
2023-05-22T04:15:19.501Z,14.14
2023-05-22T04:16:19.460Z,14.19
2023-05-22T04:17:19.393Z,14.19
2023-05-22T04:18:19.401Z,14.21
2023-05-22T04:19:19.442Z,14.21
2023-05-22T04:20:19.375Z,14.25
2023-05-22T04:21:19.358Z,14.28
2023-05-22T04:22:19.343Z,14.29
2023-05-22T04:23:19.345Z,14.32
2023-05-22T04:24:19.323Z,14.35
2023-05-22T04:25:19.348Z,14.38
2023-05-22T04:26:19.312Z,14.39
2023-05-22T04:27:19.291Z,14.44
2023-05-22T04:28:19.268Z,14.49
2023-05-22T04:29:19.325Z,14.52
2023-05-22T04:30:19.302Z,14.54
2023-05-22T04:31:19.265Z,14.60
2023-05-22T04:32:19.229Z,14.62
2023-05-22T04:33:19.241Z,14.65
2023-05-22T04:34:19.241Z,14.69
2023-05-22T04:35:19.213Z,14.71
2023-05-22T04:36:19.190Z,14.75
2023-05-22T04:37:19.184Z,14.83
2023-05-22T04:38:19.316Z,14.81
2023-05-22T04:39:19.203Z,14.84
2023-05-22T04:40:19.150Z,14.83
2023-05-22T04:41:20.614Z,14.83
2023-05-22T04:42:19.138Z,14.86
2023-05-22T04:43:19.165Z,14.87
2023-05-22T04:44:19.126Z,14.90
2023-05-22T04:45:19.103Z,14.93
2023-05-22T04:46:19.195Z,14.94
2023-05-22T04:47:19.087Z,15.03
2023-05-22T04:48:19.098Z,15.05
2023-05-22T04:49:19.086Z,15.11
2023-05-22T04:50:19.043Z,15.15
2023-05-22T04:51:19.081Z,15.23
2023-05-22T04:52:19.020Z,15.23
2023-05-22T04:53:19.023Z,15.24
2023-05-22T04:54:19.016Z,15.33
2023-05-22T04:55:19.197Z,15.46
2023-05-22T04:56:31.898Z,15.57
2023-05-22T04:57:18.987Z,15.75
2023-05-22T04:58:18.964Z,15.92
2023-05-22T04:59:19.001Z,16.03
2023-05-22T05:00:18.984Z,16.09
2023-05-22T05:01:18.995Z,16.07
2023-05-22T05:02:18.943Z,16.03
2023-05-22T05:03:19.010Z,16.01
2023-05-22T05:04:18.936Z,16.00
2023-05-22T05:05:18.907Z,16.00
2023-05-22T05:06:18.879Z,16.04
2023-05-22T05:07:18.944Z,16.11
2023-05-22T05:08:18.854Z,16.14
2023-05-22T05:09:18.874Z,16.18
2023-05-22T05:10:18.831Z,16.25
2023-05-22T05:11:18.852Z,16.31
2023-05-22T05:12:18.869Z,16.41
2023-05-22T05:13:18.814Z,16.56
2023-05-22T05:14:18.803Z,16.74
2023-05-22T05:15:18.781Z,16.99
2023-05-22T05:16:18.848Z,17.18
2023-05-22T05:17:18.772Z,17.41
2023-05-22T05:18:18.756Z,17.59
2023-05-22T05:19:18.777Z,17.64
2023-05-22T05:20:18.782Z,17.66
2023-05-22T05:21:18.745Z,17.63
2023-05-22T05:22:18.721Z,17.54
2023-05-22T05:23:18.699Z,17.62
2023-05-22T05:24:18.727Z,17.76
2023-05-22T05:25:18.752Z,18.00
2023-05-22T05:26:18.668Z,18.22
2023-05-22T05:27:18.672Z,18.37
2023-05-22T05:28:18.650Z,18.72
2023-05-22T05:29:18.669Z,18.97
2023-05-22T05:30:20.316Z,19.10
2023-05-22T05:31:18.628Z,19.14
2023-05-22T05:32:18.722Z,19.08
2023-05-22T05:33:18.630Z,19.11
2023-05-22T05:34:18.632Z,19.14
2023-05-22T05:35:18.598Z,19.23
2023-05-22T05:36:18.563Z,19.29
2023-05-22T05:37:18.550Z,19.32
2023-05-22T05:38:18.550Z,19.33
2023-05-22T05:39:18.578Z,19.28
2023-05-22T05:40:18.569Z,19.28
2023-05-22T05:41:18.516Z,19.21
2023-05-22T05:42:18.528Z,19.33
2023-05-22T05:43:18.492Z,19.70
2023-05-22T05:44:18.518Z,19.93
2023-05-22T05:45:18.477Z,20.05
2023-05-22T05:46:18.507Z,20.06
2023-05-22T05:47:18.470Z,19.87
2023-05-22T05:48:18.481Z,19.84
2023-05-22T05:49:18.459Z,19.86
2023-05-22T05:50:18.424Z,19.93
2023-05-22T05:51:18.404Z,20.02
2023-05-22T05:52:18.403Z,20.16
2023-05-22T05:53:18.415Z,20.27
2023-05-22T05:54:18.403Z,20.30
2023-05-22T05:55:18.365Z,20.28
2023-05-22T05:56:18.372Z,20.28
2023-05-22T05:57:18.350Z,20.25
2023-05-22T05:58:18.386Z,20.28
2023-05-22T05:59:18.341Z,20.25
2023-05-22T06:00:18.313Z,20.15
2023-05-22T06:01:18.325Z,20.18
2023-05-22T06:02:18.367Z,20.23
2023-05-22T06:03:18.388Z,20.25
2023-05-22T06:04:18.305Z,20.30
2023-05-22T06:05:18.326Z,20.31
2023-05-22T06:06:18.258Z,20.24
2023-05-22T06:07:18.277Z,20.13
2023-05-22T06:08:18.256Z,20.13
2023-05-22T06:09:18.254Z,20.02
2023-05-22T06:10:18.221Z,20.08
2023-05-22T06:11:18.214Z,20.13
2023-05-22T06:12:18.294Z,20.15
2023-05-22T06:13:18.181Z,20.18
2023-05-22T06:14:18.202Z,20.13
2023-05-22T06:15:18.199Z,20.10
2023-05-22T06:16:18.226Z,20.12
2023-05-22T06:17:18.174Z,20.16
2023-05-22T06:18:18.141Z,20.18
2023-05-22T06:19:18.163Z,20.21
2023-05-22T06:20:18.123Z,20.34
2023-05-22T06:21:18.132Z,20.53
2023-05-22T06:22:18.094Z,20.61
2023-05-22T06:23:18.083Z,20.58
2023-05-22T06:24:18.083Z,20.51
2023-05-22T06:25:18.079Z,20.54
2023-05-22T06:26:18.079Z,20.58
2023-05-22T06:27:18.054Z,20.81
2023-05-22T06:28:18.028Z,21.08
2023-05-22T06:29:18.040Z,21.23
2023-05-22T06:30:28.151Z,21.32
2023-05-22T06:31:18.052Z,21.24
2023-05-22T06:32:19.189Z,21.14
2023-05-22T06:33:18.069Z,20.98
2023-05-22T06:34:18.081Z,20.87
2023-05-22T06:35:17.994Z,20.74
2023-05-22T06:36:17.946Z,20.68
2023-05-22T06:37:17.956Z,20.72
2023-05-22T06:38:17.943Z,20.77
2023-05-22T06:39:17.940Z,20.84
2023-05-22T06:40:17.953Z,20.72
2023-05-22T06:41:17.920Z,20.59
2023-05-22T06:42:17.881Z,20.41
2023-05-22T06:43:17.883Z,20.46
2023-05-22T06:44:17.970Z,20.69
2023-05-22T06:45:17.876Z,20.89
2023-05-22T06:46:17.878Z,20.95
2023-05-22T06:47:17.832Z,21.08
2023-05-22T06:48:17.831Z,21.20
2023-05-22T06:49:17.861Z,21.27
2023-05-22T06:50:26.335Z,21.29
2023-05-22T06:51:17.815Z,21.16
2023-05-22T06:52:17.790Z,21.17
2023-05-22T06:53:17.769Z,21.09
2023-05-22T06:54:17.844Z,21.05
2023-05-22T06:55:17.778Z,21.01
2023-05-22T06:56:17.759Z,20.95
2023-05-22T06:57:17.740Z,20.99
2023-05-22T06:58:17.790Z,21.06
2023-05-22T06:59:17.742Z,21.04
2023-05-22T07:00:19.098Z,20.93
2023-05-22T07:01:17.767Z,20.96
2023-05-22T07:02:17.699Z,20.86
2023-05-22T07:03:17.721Z,20.76
2023-05-22T07:04:17.702Z,20.53
2023-05-22T07:05:17.729Z,20.46
2023-05-22T07:06:17.773Z,20.38
2023-05-22T07:07:17.661Z,20.25
2023-05-22T07:08:17.666Z,20.16
2023-05-22T07:09:17.645Z,20.06
2023-05-22T07:10:17.619Z,20.18
2023-05-22T07:11:17.644Z,20.09
2023-05-22T07:12:17.610Z,20.15
2023-05-22T07:13:17.619Z,20.23
2023-05-22T07:14:17.605Z,20.30
2023-05-22T07:15:17.558Z,20.34
2023-05-22T07:16:17.599Z,20.31
2023-05-22T07:17:17.565Z,20.35
2023-05-22T07:18:17.537Z,20.42
2023-05-22T07:19:17.667Z,20.46
2023-05-22T07:20:17.544Z,20.61
2023-05-22T07:21:17.478Z,20.65
2023-05-22T07:22:17.530Z,20.69
2023-05-22T07:23:17.491Z,20.80
2023-05-22T07:24:17.502Z,20.84
2023-05-22T07:25:17.496Z,20.93
2023-05-22T07:26:17.505Z,21.01
2023-05-22T07:27:17.469Z,20.93
2023-05-22T07:28:17.421Z,20.93
2023-05-22T07:29:17.415Z,21.01
2023-05-22T07:30:17.404Z,21.04
2023-05-22T07:31:17.537Z,21.04
2023-05-22T07:32:17.380Z,21.09
2023-05-22T07:33:17.367Z,21.04
2023-05-22T07:34:17.405Z,21.01
2023-05-22T07:35:17.433Z,21.09
2023-05-22T07:36:17.391Z,21.21
2023-05-22T07:37:17.330Z,21.20
2023-05-22T07:38:17.322Z,21.14
2023-05-22T07:39:17.308Z,21.19
2023-05-22T07:40:17.326Z,21.29
2023-05-22T07:41:17.322Z,21.13
2023-05-22T07:42:17.275Z,21.06
2023-05-22T07:43:17.261Z,21.09
2023-05-22T07:44:17.268Z,21.06
2023-05-22T07:45:17.249Z,21.04
2023-05-22T07:46:17.263Z,21.11
2023-05-22T07:47:17.217Z,21.14
2023-05-22T07:48:17.254Z,21.23
2023-05-22T07:49:17.230Z,21.41
2023-05-22T07:50:17.232Z,21.42
2023-05-22T07:51:17.168Z,21.42
2023-05-22T07:52:17.189Z,21.50
2023-05-22T07:53:17.507Z,21.59
2023-05-22T07:54:17.189Z,21.75
2023-05-22T07:55:17.165Z,21.81
2023-05-22T07:56:17.138Z,21.72
2023-05-22T07:57:17.110Z,21.64
2023-05-22T07:58:17.176Z,21.53
2023-05-22T07:59:17.138Z,21.63
2023-05-22T08:00:17.116Z,21.63
2023-05-22T08:01:17.078Z,21.63
2023-05-22T08:02:17.128Z,21.69
2023-05-22T08:03:17.547Z,21.72
2023-05-22T08:04:17.289Z,21.57
2023-05-22T08:05:17.183Z,21.71
2023-05-22T08:06:17.048Z,21.66
2023-05-22T08:07:17.017Z,21.69
2023-05-22T08:08:17.031Z,21.83
2023-05-22T08:09:17.077Z,21.90
2023-05-22T08:10:16.985Z,21.97
2023-05-22T08:11:18.136Z,21.94
2023-05-22T08:12:16.972Z,22.02
2023-05-22T08:13:16.995Z,22.07
2023-05-22T08:14:16.981Z,22.25
2023-05-22T08:15:16.952Z,22.49
2023-05-22T08:16:16.923Z,22.46
2023-05-22T08:17:16.961Z,22.39
2023-05-22T08:18:16.946Z,22.44
2023-05-22T08:19:16.934Z,22.50
2023-05-22T08:20:17.040Z,22.62
2023-05-22T08:21:16.876Z,22.86
2023-05-22T08:22:16.888Z,23.27
2023-05-22T08:23:20.254Z,23.57
2023-05-22T08:24:16.856Z,23.80
2023-05-22T08:25:16.854Z,23.71
2023-05-22T08:26:16.816Z,23.77
2023-05-22T08:27:16.835Z,23.80
2023-05-22T08:28:16.795Z,23.79
2023-05-22T08:29:16.791Z,23.71
2023-05-22T08:30:16.778Z,23.80
2023-05-22T08:31:16.794Z,23.79
2023-05-22T08:32:16.786Z,23.75
2023-05-22T08:33:16.816Z,23.87
2023-05-22T08:34:16.824Z,23.47
2023-05-22T08:35:16.714Z,23.43
2023-05-22T08:36:16.742Z,23.39
2023-05-22T08:37:16.745Z,23.31
2023-05-22T08:38:16.702Z,23.53
2023-05-22T08:39:16.707Z,23.77
2023-05-22T08:40:16.674Z,23.82
2023-05-22T08:41:16.689Z,23.95
2023-05-22T08:42:16.651Z,24.17
2023-05-22T08:43:16.636Z,24.29
2023-05-22T08:44:16.648Z,24.54
2023-05-22T08:45:16.657Z,24.73
2023-05-22T08:46:16.690Z,24.83
2023-05-22T08:47:16.660Z,24.90
2023-05-22T08:48:16.603Z,24.85
2023-05-22T08:49:16.649Z,24.64
2023-05-22T08:50:16.618Z,24.19
2023-05-22T08:51:16.666Z,24.16
2023-05-22T08:52:16.549Z,24.14
2023-05-22T08:53:16.538Z,24.02
2023-05-22T08:54:16.536Z,23.95
2023-05-22T08:55:16.557Z,24.01
2023-05-22T08:56:16.561Z,24.13
2023-05-22T08:57:16.653Z,24.26
2023-05-22T08:58:16.679Z,24.07
2023-05-22T08:59:16.797Z,23.98
2023-05-22T09:00:16.726Z,23.90
2023-05-22T09:01:16.631Z,23.75
2023-05-22T09:02:16.438Z,23.65
2023-05-22T09:03:16.870Z,23.85
2023-05-22T09:04:16.465Z,24.04
2023-05-22T09:05:16.440Z,24.32
2023-05-22T09:06:16.474Z,24.98
2023-05-22T09:07:16.427Z,25.42
2023-05-22T09:08:20.900Z,26.02
2023-05-22T09:09:16.414Z,26.87
2023-05-22T09:10:16.485Z,27.46
2023-05-22T09:11:16.407Z,28.11
2023-05-22T09:12:16.366Z,28.84
2023-05-22T09:13:16.370Z,29.18
2023-05-22T09:14:16.370Z,29.06
2023-05-22T09:15:16.354Z,29.04
2023-05-22T09:16:16.324Z,29.03
2023-05-22T09:17:16.606Z,28.85
2023-05-22T09:18:16.355Z,29.07
2023-05-22T09:19:16.387Z,28.95
2023-05-22T09:20:16.352Z,29.23
2023-05-22T09:21:28.795Z,29.52
2023-05-22T09:22:16.260Z,29.63
2023-05-22T09:23:16.314Z,29.52
2023-05-22T09:24:16.263Z,29.60
2023-05-22T09:25:16.239Z,29.82
2023-05-22T09:26:16.250Z,29.68
2023-05-22T09:27:16.237Z,29.57
2023-05-22T09:28:16.255Z,29.47
2023-05-22T09:29:16.229Z,29.41
2023-05-22T09:30:16.215Z,29.89
2023-05-22T09:31:16.221Z,29.97
2023-05-22T09:32:16.238Z,29.94
2023-05-22T09:33:16.207Z,30.52
2023-05-22T09:34:16.155Z,30.61
2023-05-22T09:35:16.160Z,30.15
2023-05-22T09:36:16.151Z,29.86
2023-05-22T09:37:16.266Z,30.03
2023-05-22T09:38:16.132Z,30.65
2023-05-22T09:39:16.111Z,31.08
2023-05-22T09:40:16.104Z,30.86
2023-05-22T09:41:16.131Z,30.19
2023-05-22T09:42:16.127Z,29.77
2023-05-22T09:43:16.077Z,29.82
2023-05-22T09:44:16.192Z,30.03
2023-05-22T09:45:16.081Z,30.54
2023-05-22T09:46:16.114Z,30.81
2023-05-22T09:47:16.036Z,31.53
2023-05-22T09:48:16.075Z,31.87
2023-05-22T09:49:17.085Z,31.95
2023-05-22T09:50:16.157Z,32.43
2023-05-22T09:51:16.013Z,32.06
2023-05-22T09:52:15.986Z,31.77
2023-05-22T09:53:16.080Z,31.80
2023-05-22T09:54:15.974Z,31.77
2023-05-22T09:55:16.036Z,31.95
2023-05-22T09:56:19.225Z,31.87
2023-05-22T09:57:15.943Z,31.50
2023-05-22T09:58:15.918Z,30.96
2023-05-22T09:59:15.948Z,30.61
2023-05-22T10:00:15.940Z,30.54
2023-05-22T10:01:16.068Z,30.38
2023-05-22T10:02:15.897Z,30.34
2023-05-22T10:03:15.895Z,30.49
2023-05-22T10:04:15.922Z,30.90
2023-05-22T10:05:16.206Z,31.67
2023-05-22T10:06:15.855Z,32.52
2023-05-22T10:07:15.839Z,32.43
2023-05-22T10:08:16.029Z,32.24
2023-05-22T10:09:18.162Z,32.22
2023-05-22T10:10:15.809Z,32.84
2023-05-22T10:11:15.810Z,33.68
2023-05-22T10:12:15.801Z,34.04
2023-05-22T10:13:15.854Z,34.79
2023-05-22T10:14:15.822Z,35.02
2023-05-22T10:15:15.814Z,35.92
2023-05-22T10:16:15.818Z,34.60
2023-05-22T10:17:15.752Z,34.57
2023-05-22T10:18:15.777Z,34.92
2023-05-22T10:19:15.790Z,34.41
2023-05-22T10:20:15.720Z,34.61
2023-05-22T10:21:15.723Z,35.44
2023-05-22T10:22:15.770Z,36.00
2023-05-22T10:23:15.754Z,35.93
2023-05-22T10:24:15.721Z,35.99
2023-05-22T10:25:15.685Z,35.60
2023-05-22T10:26:15.685Z,34.96
2023-05-22T10:27:15.745Z,34.91
2023-05-22T10:28:15.774Z,34.72
2023-05-22T10:29:15.661Z,34.57
2023-05-22T10:30:15.647Z,34.27
2023-05-22T10:31:15.641Z,33.90
2023-05-22T10:32:15.754Z,34.19
2023-05-22T10:33:15.750Z,34.60
2023-05-22T10:34:15.631Z,35.10
2023-05-22T10:35:15.599Z,34.89
2023-05-22T10:36:15.632Z,35.30
2023-05-22T10:37:17.590Z,35.47
2023-05-22T10:38:15.614Z,35.17
2023-05-22T10:39:15.576Z,34.58
2023-05-22T10:40:15.611Z,34.01
2023-05-22T10:41:15.551Z,34.36
2023-05-22T10:42:15.593Z,35.03
2023-05-22T10:43:15.538Z,34.77
2023-05-22T10:44:15.540Z,35.40
2023-05-22T10:45:15.525Z,36.15
2023-05-22T10:46:15.588Z,36.31
2023-05-22T10:47:15.530Z,36.51
2023-05-22T10:48:15.489Z,36.54
2023-05-22T10:49:15.523Z,36.65
2023-05-22T10:50:16.437Z,36.52
2023-05-22T10:51:15.495Z,36.06
2023-05-22T10:52:15.486Z,35.95
2023-05-22T10:53:15.472Z,35.85
2023-05-22T10:54:15.453Z,35.82
2023-05-22T10:55:15.450Z,35.85
2023-05-22T10:56:15.500Z,36.00
2023-05-22T10:57:15.408Z,35.35
2023-05-22T10:58:15.434Z,35.18
2023-05-22T10:59:15.420Z,35.45
2023-05-22T11:00:15.431Z,34.95
2023-05-22T11:01:15.518Z,34.32
2023-05-22T11:02:15.409Z,33.51
2023-05-22T11:03:18.341Z,33.37
2023-05-22T11:04:15.389Z,33.34
2023-05-22T11:05:15.388Z,33.30
2023-05-22T11:06:15.414Z,33.83
2023-05-22T11:07:15.373Z,34.22
2023-05-22T11:08:15.776Z,33.90
2023-05-22T11:09:16.080Z,33.03
2023-05-22T11:10:15.353Z,32.66
2023-05-22T11:11:15.307Z,32.05
2023-05-22T11:12:15.304Z,32.13
2023-05-22T11:13:15.340Z,32.10
2023-05-22T11:14:15.333Z,32.85
2023-05-22T11:15:15.314Z,33.51
2023-05-22T11:16:15.268Z,33.78
2023-05-22T11:17:15.334Z,34.34
2023-05-22T11:18:15.292Z,34.74
2023-05-22T11:19:23.438Z,35.08
2023-05-22T11:20:15.291Z,35.23
2023-05-22T11:21:15.223Z,34.63
2023-05-22T11:22:15.207Z,34.60
2023-05-22T11:23:15.227Z,34.86
2023-05-22T11:24:15.229Z,35.11
2023-05-22T11:25:15.197Z,35.23
2023-05-22T11:26:15.185Z,35.20
2023-05-22T11:27:15.212Z,35.51
2023-05-22T11:28:15.258Z,35.37
2023-05-22T11:29:15.206Z,34.83
2023-05-22T11:30:15.149Z,34.41
2023-05-22T11:31:15.189Z,34.35
2023-05-22T11:32:15.129Z,33.86
2023-05-22T11:33:15.197Z,33.85
2023-05-22T11:34:15.155Z,33.83
2023-05-22T11:35:15.117Z,33.45
2023-05-22T11:36:15.097Z,33.70
2023-05-22T11:37:15.137Z,34.08
2023-05-22T11:38:15.218Z,33.03
2023-05-22T11:39:15.117Z,32.29
2023-05-22T11:40:15.145Z,32.11
2023-05-22T11:41:15.066Z,31.84
2023-05-22T11:42:15.056Z,31.95
2023-05-22T11:43:15.103Z,32.13
2023-05-22T11:44:15.042Z,31.98
2023-05-22T11:45:15.869Z,31.82
2023-05-22T11:46:15.046Z,32.02
2023-05-22T11:47:15.008Z,32.03
2023-05-22T11:48:15.741Z,31.95
2023-05-22T11:49:15.019Z,32.25
2023-05-22T11:50:17.951Z,32.70
2023-05-22T11:51:15.001Z,32.13
2023-05-22T11:52:15.015Z,31.77
2023-05-22T11:53:14.958Z,31.54
2023-05-22T11:54:14.954Z,31.54
2023-05-22T11:55:14.948Z,31.42
2023-05-22T11:56:14.950Z,31.24
2023-05-22T11:57:14.991Z,31.55
2023-05-22T11:58:14.949Z,31.80
2023-05-22T11:59:15.109Z,31.93
2023-05-22T12:00:15.301Z,32.25
2023-05-22T12:01:14.918Z,32.27
2023-05-22T12:02:14.924Z,31.96
2023-05-22T12:03:14.957Z,31.70
2023-05-22T12:04:14.927Z,31.73
2023-05-22T12:05:14.874Z,31.05
2023-05-22T12:06:17.122Z,30.45
2023-05-22T12:07:14.894Z,29.62
2023-05-22T12:08:14.850Z,29.28
2023-05-22T12:09:14.851Z,28.91
2023-05-22T12:10:14.844Z,28.07
2023-05-22T12:11:14.815Z,27.58
2023-05-22T12:12:14.843Z,27.59
2023-05-22T12:13:14.803Z,27.59
2023-05-22T12:14:14.790Z,27.14
2023-05-22T12:15:14.770Z,27.35
2023-05-22T12:16:14.839Z,27.43
2023-05-22T12:17:14.769Z,27.69
2023-05-22T12:18:14.783Z,27.85
2023-05-22T12:19:14.857Z,28.13
2023-05-22T12:20:14.807Z,28.16
2023-05-22T12:21:14.741Z,28.21
2023-05-22T12:22:14.789Z,28.35
2023-05-22T12:23:14.689Z,28.38
2023-05-22T12:24:14.697Z,28.36
2023-05-22T12:25:14.727Z,28.36
2023-05-22T12:26:14.684Z,28.35
2023-05-22T12:27:14.656Z,28.11
2023-05-22T12:28:14.631Z,28.09
2023-05-22T12:29:14.668Z,28.11
2023-05-22T12:30:14.923Z,28.14
2023-05-22T12:31:14.623Z,28.14
2023-05-22T12:32:14.660Z,27.95
2023-05-22T12:33:14.654Z,27.67
2023-05-22T12:34:14.609Z,27.53
2023-05-22T12:35:14.616Z,27.41
2023-05-22T12:36:14.607Z,27.42
2023-05-22T12:37:14.574Z,27.42
2023-05-22T12:38:14.542Z,27.41
2023-05-22T12:39:14.566Z,27.38
2023-05-22T12:40:14.556Z,27.35
2023-05-22T12:41:14.519Z,27.23
2023-05-22T12:42:14.499Z,27.26
2023-05-22T12:43:14.528Z,27.13
2023-05-22T12:44:14.507Z,26.96
2023-05-22T12:45:14.508Z,26.81
2023-05-22T12:46:14.484Z,26.64
2023-05-22T12:47:14.470Z,26.58
2023-05-22T12:48:14.506Z,26.62
2023-05-22T12:49:14.462Z,26.54
2023-05-22T12:50:14.436Z,26.54
2023-05-22T12:51:14.429Z,26.42
2023-05-22T12:52:22.524Z,26.35